createdAt,value
2023-04-22T00:00:14.071Z,18.79
2023-04-22T00:00:36.395Z,18.79
2023-04-22T00:00:59.746Z,18.79
2023-04-22T00:01:21.705Z,18.72
2023-04-22T00:01:43.428Z,18.81
2023-04-22T00:02:05.160Z,18.82
2023-04-22T00:02:29.441Z,18.80
2023-04-22T00:02:51.321Z,18.79
2023-04-22T00:03:14.249Z,18.78
2023-04-22T00:03:36.183Z,18.78
2023-04-22T00:03:59.239Z,18.77
2023-04-22T00:04:21.569Z,18.73
2023-04-22T00:04:43.585Z,18.68
2023-04-22T00:05:06.800Z,18.69
2023-04-22T00:05:29.473Z,18.74
2023-04-22T00:05:51.289Z,18.74
2023-04-22T00:06:13.085Z,18.75
2023-04-22T00:06:36.112Z,18.75
2023-04-22T00:06:58.811Z,18.73
2023-04-22T00:07:20.490Z,18.67
2023-04-22T00:07:43.343Z,18.73
2023-04-22T00:08:05.102Z,18.74
2023-04-22T00:08:27.658Z,18.72
2023-04-22T00:08:49.249Z,18.72
2023-04-22T00:09:11.040Z,18.68
2023-04-22T00:09:32.704Z,18.70
2023-04-22T00:09:55.295Z,18.71
2023-04-22T00:10:16.960Z,18.71
2023-04-22T00:10:38.642Z,18.71
2023-04-22T00:11:01.196Z,18.67
2023-04-22T00:11:22.873Z,18.67
2023-04-22T00:11:44.500Z,18.67
2023-04-22T00:12:06.686Z,18.68
2023-04-22T00:12:28.268Z,18.69
2023-04-22T00:12:50.944Z,18.67
2023-04-22T00:13:12.517Z,18.63
2023-04-22T00:13:34.285Z,18.52
2023-04-22T00:13:55.928Z,18.69
2023-04-22T00:14:18.813Z,18.70
2023-04-22T00:14:40.435Z,18.69
2023-04-22T00:15:02.431Z,18.69
2023-04-22T00:15:25.363Z,18.59
2023-04-22T00:15:48.039Z,18.72
2023-04-22T00:16:09.777Z,18.71
2023-04-22T00:16:31.473Z,18.70
2023-04-22T00:16:53.245Z,18.70
2023-04-22T00:17:15.880Z,18.71
2023-04-22T00:17:37.607Z,18.66
2023-04-22T00:17:59.816Z,18.64
2023-04-22T00:18:21.835Z,18.63
2023-04-22T00:18:44.441Z,18.64
2023-04-22T00:19:06.165Z,18.58
2023-04-22T00:19:28.313Z,18.60
2023-04-22T00:19:49.947Z,18.64
2023-04-22T00:20:13.013Z,18.67
2023-04-22T00:20:36.397Z,18.69
2023-04-22T00:20:58.012Z,18.67
2023-04-22T00:21:19.718Z,18.66
2023-04-22T00:21:42.714Z,18.65
2023-04-22T00:22:05.656Z,18.64
2023-04-22T00:22:27.660Z,18.64
2023-04-22T00:22:49.361Z,18.61
2023-04-22T00:23:11.668Z,18.60
2023-04-22T00:23:34.436Z,18.59
2023-04-22T00:23:56.107Z,18.58
2023-04-22T00:24:17.779Z,18.58
2023-04-22T00:24:39.478Z,18.57
2023-04-22T00:25:01.169Z,18.50
2023-04-22T00:25:23.764Z,18.47
2023-04-22T00:25:45.391Z,18.58
2023-04-22T00:26:07.057Z,18.61
2023-04-22T00:26:28.730Z,18.62
2023-04-22T00:26:51.321Z,18.59
2023-04-22T00:27:13.067Z,18.66
2023-04-22T00:27:34.779Z,18.65
2023-04-22T00:27:56.405Z,18.66
2023-04-22T00:28:19.008Z,18.65
2023-04-22T00:29:20.072Z,18.60
2023-04-22T00:29:41.790Z,18.62
2023-04-22T00:30:04.817Z,18.58
2023-04-22T00:30:26.444Z,18.58
2023-04-22T00:30:48.097Z,18.57
2023-04-22T00:31:09.750Z,18.58
2023-04-22T00:31:31.787Z,18.55
2023-04-22T00:31:54.583Z,18.32
2023-04-22T00:32:16.279Z,18.53
2023-04-22T00:32:38.358Z,18.51
2023-04-22T00:33:00.189Z,18.50
2023-04-22T00:33:22.789Z,18.47
2023-04-22T00:33:44.372Z,18.47
2023-04-22T00:34:05.980Z,18.49
2023-04-22T00:34:27.569Z,18.49
2023-04-22T00:34:49.680Z,18.49
2023-04-22T00:35:12.340Z,18.51
2023-04-22T00:35:34.632Z,18.51
2023-04-22T00:35:56.272Z,18.51
2023-04-22T00:36:17.911Z,18.52
2023-04-22T00:36:39.588Z,18.52
2023-04-22T00:37:03.667Z,18.50
2023-04-22T00:37:25.700Z,18.53
2023-04-22T00:37:47.374Z,18.51
2023-04-22T00:38:09.092Z,18.53
2023-04-22T00:38:31.774Z,18.47
2023-04-22T00:38:53.515Z,18.47
2023-04-22T00:39:15.402Z,18.47
2023-04-22T00:39:39.357Z,18.50
2023-04-22T00:40:01.409Z,18.51
2023-04-22T00:40:24.005Z,18.47
2023-04-22T00:40:46.329Z,18.44
2023-04-22T00:41:08.438Z,18.45
2023-04-22T00:41:31.170Z,18.46
2023-04-22T00:41:54.643Z,18.44
2023-04-22T00:42:16.947Z,18.50
2023-04-22T00:42:39.573Z,18.52
2023-04-22T00:43:02.771Z,18.54
2023-04-22T00:43:25.503Z,18.55
2023-04-22T00:43:47.170Z,18.56
2023-04-22T00:44:10.177Z,18.58
2023-04-22T00:44:32.663Z,18.59
2023-04-22T00:44:54.478Z,18.56
2023-04-22T00:45:18.202Z,18.60
2023-04-22T00:45:40.043Z,18.61
2023-04-22T00:46:01.711Z,18.60
2023-04-22T00:46:24.290Z,18.60
2023-04-22T00:46:47.201Z,18.62
2023-04-22T00:47:09.283Z,18.58
2023-04-22T00:47:32.294Z,18.70
2023-04-22T00:47:54.158Z,18.74
2023-04-22T00:48:16.812Z,18.75
2023-04-22T00:48:38.880Z,18.74
2023-04-22T00:49:01.207Z,18.77
2023-04-22T00:49:25.245Z,18.80
2023-04-22T00:49:50.298Z,18.77
2023-04-22T00:50:12.023Z,18.79
2023-04-22T00:50:33.674Z,18.82
2023-04-22T00:50:55.265Z,18.83
2023-04-22T00:51:16.911Z,18.85
2023-04-22T00:51:39.472Z,18.89
2023-04-22T00:52:02.488Z,18.92
2023-04-22T00:52:24.173Z,18.92
2023-04-22T00:52:45.920Z,18.94
2023-04-22T00:53:07.568Z,18.96
2023-04-22T00:53:29.270Z,18.94
2023-04-22T00:53:51.882Z,18.97
2023-04-22T00:54:13.553Z,18.98
2023-04-22T00:54:35.760Z,19.02
2023-04-22T00:54:57.649Z,19.03
2023-04-22T00:55:19.551Z,19.04
2023-04-22T00:55:42.280Z,19.05
2023-04-22T00:56:04.397Z,18.98
2023-04-22T00:56:27.964Z,19.06
2023-04-22T00:56:49.757Z,19.04
2023-04-22T00:57:12.005Z,19.01
2023-04-22T00:57:36.611Z,18.98
2023-04-22T00:58:00.624Z,18.98
2023-04-22T00:58:25.819Z,19.02
2023-04-22T00:58:47.495Z,18.99
2023-04-22T00:59:10.980Z,18.98
2023-04-22T00:59:33.350Z,18.93
2023-04-22T00:59:55.555Z,18.93
2023-04-22T01:00:20.032Z,18.90
2023-04-22T01:00:41.894Z,18.91
2023-04-22T01:01:05.098Z,18.87
2023-04-22T01:01:26.975Z,18.84
2023-04-22T01:01:49.158Z,18.86
2023-04-22T01:02:11.511Z,18.85
2023-04-22T01:02:34.611Z,18.86
2023-04-22T01:02:57.567Z,18.85
2023-04-22T01:03:20.790Z,18.83
2023-04-22T01:03:43.101Z,18.83
2023-04-22T01:04:06.597Z,18.82
2023-04-22T01:04:28.583Z,18.78
2023-04-22T01:04:50.363Z,18.77
2023-04-22T01:05:12.068Z,18.73
2023-04-22T01:05:34.588Z,18.73
2023-04-22T01:05:57.663Z,18.73
2023-04-22T01:06:19.983Z,18.72
2023-04-22T01:06:43.937Z,18.77
2023-04-22T01:07:06.921Z,18.75
2023-04-22T01:07:29.799Z,18.78
2023-04-22T01:07:51.382Z,18.77
2023-04-22T01:08:13.044Z,18.76
2023-04-22T01:08:34.800Z,18.77
2023-04-22T01:08:56.478Z,18.76
2023-04-22T01:09:20.097Z,18.75
2023-04-22T01:09:41.960Z,18.75
2023-04-22T01:10:04.725Z,18.74
2023-04-22T01:10:26.417Z,18.72
2023-04-22T01:10:48.979Z,18.74
2023-04-22T01:11:10.701Z,18.75
2023-04-22T01:11:33.280Z,18.69
2023-04-22T01:11:56.245Z,18.75
2023-04-22T01:12:26.718Z,18.72
2023-04-22T01:12:55.930Z,18.72
2023-04-22T01:13:42.487Z,18.74
2023-04-22T01:14:05.890Z,18.75
2023-04-22T01:14:28.811Z,18.78
2023-04-22T01:14:50.502Z,18.83
2023-04-22T01:15:12.635Z,18.81
2023-04-22T01:15:35.564Z,18.83
2023-04-22T01:15:57.834Z,18.80
2023-04-22T01:16:20.393Z,18.84
2023-04-22T01:16:43.744Z,18.82
2023-04-22T01:17:06.679Z,18.87
2023-04-22T01:17:31.870Z,18.87
2023-04-22T01:17:54.968Z,18.90
2023-04-22T01:18:16.851Z,18.90
2023-04-22T01:18:38.797Z,18.90
2023-04-22T01:19:01.894Z,18.92
2023-04-22T01:19:23.842Z,18.90
2023-04-22T01:19:46.186Z,18.93
2023-04-22T01:20:10.345Z,18.94
2023-04-22T01:20:33.050Z,18.93
2023-04-22T01:20:54.738Z,18.94
2023-04-22T01:21:16.998Z,18.96
2023-04-22T01:21:40.726Z,18.95
2023-04-22T01:22:04.421Z,18.93
2023-04-22T01:22:33.453Z,18.95
2023-04-22T01:22:56.411Z,18.93
2023-04-22T01:23:21.404Z,18.92
2023-04-22T01:23:44.148Z,18.95
2023-04-22T01:24:06.669Z,18.96
2023-04-22T01:24:28.424Z,18.94
2023-04-22T01:24:50.507Z,18.92
2023-04-22T01:25:13.432Z,18.91
2023-04-22T01:25:35.130Z,18.92
2023-04-22T01:25:57.561Z,18.91
2023-04-22T01:26:19.241Z,18.88
2023-04-22T01:26:42.116Z,18.89
2023-04-22T01:27:03.856Z,18.87
2023-04-22T01:27:25.842Z,18.81
2023-04-22T01:27:47.644Z,18.80
2023-04-22T01:28:09.652Z,18.82
2023-04-22T01:28:32.904Z,18.72
2023-04-22T01:28:54.619Z,18.78
2023-04-22T01:29:16.428Z,18.80
2023-04-22T01:29:38.957Z,18.83
2023-04-22T01:30:00.872Z,18.81
2023-04-22T01:30:23.506Z,18.79
2023-04-22T01:30:45.373Z,18.80
2023-04-22T01:31:07.100Z,18.82
2023-04-22T01:31:29.376Z,18.83
2023-04-22T01:31:53.903Z,18.79
2023-04-22T01:32:15.622Z,18.65
2023-04-22T01:32:38.902Z,18.66
2023-04-22T01:33:00.852Z,18.68
2023-04-22T01:33:23.548Z,18.67
2023-04-22T01:33:45.820Z,18.67
2023-04-22T01:34:09.399Z,18.67
2023-04-22T01:34:31.962Z,18.67
2023-04-22T01:34:54.559Z,18.68
2023-04-22T01:35:16.269Z,18.68
2023-04-22T01:35:38.242Z,18.64
2023-04-22T01:36:00.022Z,18.65
2023-04-22T01:36:21.863Z,18.64
2023-04-22T01:36:45.422Z,18.63
2023-04-22T01:37:07.286Z,18.64
2023-04-22T01:37:29.495Z,18.65
2023-04-22T01:37:51.072Z,18.50
2023-04-22T01:38:13.325Z,18.63
2023-04-22T01:38:37.280Z,18.57
2023-04-22T01:38:59.732Z,18.57
2023-04-22T01:39:21.858Z,18.57
2023-04-22T01:39:43.749Z,18.58
2023-04-22T01:40:09.162Z,18.56
2023-04-22T01:40:31.849Z,18.55
2023-04-22T01:40:53.804Z,18.53
2023-04-22T01:41:16.790Z,18.46
2023-04-22T01:41:38.594Z,18.49
2023-04-22T01:42:02.090Z,18.50
2023-04-22T01:42:24.534Z,18.53
2023-04-22T01:42:47.363Z,18.54
2023-04-22T01:43:11.040Z,18.54
2023-04-22T01:43:34.017Z,18.51
2023-04-22T01:43:58.455Z,18.52
2023-04-22T01:44:20.192Z,18.55
2023-04-22T01:44:42.956Z,18.51
2023-04-22T01:45:05.618Z,18.52
2023-04-22T01:45:28.022Z,18.51
2023-04-22T01:45:50.694Z,18.51
2023-04-22T01:46:12.393Z,18.51
2023-04-22T01:46:34.261Z,18.52
2023-04-22T01:46:56.010Z,18.43
2023-04-22T01:47:17.716Z,18.50
2023-04-22T01:47:40.342Z,18.51
2023-04-22T01:48:02.209Z,18.49
2023-04-22T01:48:23.909Z,18.46
2023-04-22T01:48:50.393Z,18.50
2023-04-22T01:49:13.076Z,18.51
2023-04-22T01:49:34.729Z,18.50
2023-04-22T01:49:56.313Z,18.45
2023-04-22T01:50:18.035Z,18.50
2023-04-22T01:50:41.544Z,18.49
2023-04-22T01:51:03.456Z,18.52
2023-04-22T01:51:25.221Z,18.49
2023-04-22T01:51:46.826Z,18.43
2023-04-22T01:52:08.411Z,18.46
2023-04-22T01:52:31.884Z,18.43
2023-04-22T01:52:53.611Z,18.43
2023-04-22T01:53:16.924Z,18.41
2023-04-22T01:53:41.003Z,18.38
2023-04-22T01:54:04.130Z,18.38
2023-04-22T01:54:25.928Z,18.41
2023-04-22T01:54:48.675Z,18.40
2023-04-22T01:55:10.780Z,18.42
2023-04-22T01:55:36.063Z,18.44
2023-04-22T01:55:57.739Z,18.35
2023-04-22T01:56:19.539Z,18.36
2023-04-22T01:56:43.924Z,18.37
2023-04-22T01:57:10.572Z,18.39
2023-04-22T01:57:32.375Z,18.33
2023-04-22T01:57:55.165Z,18.31
2023-04-22T01:58:16.828Z,18.24
2023-04-22T01:58:39.394Z,18.25
2023-04-22T01:59:02.081Z,18.27
2023-04-22T01:59:27.524Z,18.29
2023-04-22T01:59:49.173Z,18.30
2023-04-22T02:00:12.419Z,18.33
2023-04-22T02:00:43.523Z,18.35
2023-04-22T02:01:06.399Z,18.34
2023-04-22T02:01:28.125Z,18.33
2023-04-22T02:01:50.476Z,18.32
2023-04-22T02:02:13.224Z,18.29
2023-04-22T02:02:36.254Z,18.31
2023-04-22T02:02:58.000Z,18.28
2023-04-22T02:03:20.234Z,18.18
2023-04-22T02:03:43.116Z,18.24
2023-04-22T02:04:08.027Z,18.25
2023-04-22T02:04:29.856Z,18.27
2023-04-22T02:04:51.676Z,18.26
2023-04-22T02:05:13.534Z,18.26
2023-04-22T02:05:35.393Z,18.26
2023-04-22T02:05:57.987Z,18.25
2023-04-22T02:06:19.583Z,18.26
2023-04-22T02:06:41.345Z,18.27
2023-04-22T02:07:03.921Z,18.26
2023-04-22T02:07:27.050Z,18.28
2023-04-22T02:07:51.954Z,18.28
2023-04-22T02:08:13.542Z,18.28
2023-04-22T02:08:35.169Z,18.28
2023-04-22T02:08:59.121Z,18.28
2023-04-22T02:09:20.752Z,18.28
2023-04-22T02:09:42.572Z,18.24
2023-04-22T02:10:05.501Z,18.25
2023-04-22T02:10:28.185Z,18.22
2023-04-22T02:10:49.789Z,18.23
2023-04-22T02:11:11.434Z,18.20
2023-04-22T02:11:33.152Z,18.24
2023-04-22T02:11:55.755Z,18.19
2023-04-22T02:12:17.329Z,18.24
2023-04-22T02:12:39.016Z,18.25
2023-04-22T02:13:00.680Z,18.22
2023-04-22T02:13:22.387Z,18.22
2023-04-22T02:13:45.969Z,18.24
2023-04-22T02:14:08.498Z,18.25
2023-04-22T02:14:30.391Z,18.25
2023-04-22T02:14:57.390Z,18.25
2023-04-22T02:15:22.708Z,18.24
2023-04-22T02:15:45.926Z,18.25
2023-04-22T02:16:08.189Z,18.27
2023-04-22T02:16:30.037Z,18.28
2023-04-22T02:16:52.789Z,18.30
2023-04-22T02:17:14.410Z,18.33
2023-04-22T02:17:36.144Z,18.32
2023-04-22T02:17:57.789Z,18.31
2023-04-22T02:18:19.560Z,18.26
2023-04-22T02:18:42.127Z,18.35
2023-04-22T02:19:03.912Z,18.38
2023-04-22T02:19:26.181Z,18.30
2023-04-22T02:19:47.863Z,18.41
2023-04-22T02:20:12.005Z,18.42
2023-04-22T02:20:33.743Z,18.44
2023-04-22T02:20:55.437Z,18.46
2023-04-22T02:21:16.990Z,18.45
2023-04-22T02:21:41.227Z,18.46
2023-04-22T02:22:02.954Z,18.51
2023-04-22T02:22:24.816Z,18.51
2023-04-22T02:22:46.558Z,18.53
2023-04-22T02:23:09.218Z,18.51
2023-04-22T02:23:31.121Z,18.32
2023-04-22T02:23:52.755Z,18.49
2023-04-22T02:24:16.463Z,18.50
2023-04-22T02:24:38.244Z,18.52
2023-04-22T02:25:01.292Z,18.54
2023-04-22T02:25:22.911Z,18.51
2023-04-22T02:25:49.412Z,18.54
2023-04-22T02:26:11.435Z,18.54
2023-04-22T02:26:33.051Z,18.53
2023-04-22T02:26:56.491Z,18.52
2023-04-22T02:27:18.135Z,18.54
2023-04-22T02:27:42.465Z,18.52
2023-04-22T02:28:04.260Z,18.44
2023-04-22T02:28:27.313Z,18.39
2023-04-22T02:28:48.985Z,18.52
2023-04-22T02:29:10.741Z,18.53
2023-04-22T02:29:32.384Z,18.51
2023-04-22T02:29:55.025Z,18.51
2023-04-22T02:30:16.690Z,18.49
2023-04-22T02:30:38.282Z,18.49
2023-04-22T02:31:00.075Z,18.51
2023-04-22T02:31:21.730Z,18.51
2023-04-22T02:31:44.542Z,18.55
2023-04-22T02:32:07.074Z,18.54
2023-04-22T02:32:28.681Z,18.55
2023-04-22T02:32:50.366Z,18.55
2023-04-22T02:33:13.104Z,18.57
2023-04-22T02:33:34.730Z,18.52
2023-04-22T02:33:56.406Z,18.57
2023-04-22T02:34:18.199Z,18.55
2023-04-22T02:34:42.585Z,18.46
2023-04-22T02:35:05.295Z,18.53
2023-04-22T02:35:26.929Z,18.51
2023-04-22T02:35:48.521Z,18.47
2023-04-22T02:36:13.294Z,18.33
2023-04-22T02:36:35.945Z,18.46
2023-04-22T02:36:57.682Z,18.47
2023-04-22T02:37:19.367Z,18.42
2023-04-22T02:37:40.992Z,18.48
2023-04-22T02:38:02.610Z,18.33
2023-04-22T02:38:25.220Z,18.46
2023-04-22T02:38:46.862Z,18.30
2023-04-22T02:39:09.995Z,18.48
2023-04-22T02:39:33.242Z,18.48
2023-04-22T02:39:56.136Z,18.51
2023-04-22T02:40:17.700Z,18.49
2023-04-22T02:40:40.331Z,18.57
2023-04-22T02:41:01.970Z,18.55
2023-04-22T02:41:24.516Z,18.61
2023-04-22T02:41:47.211Z,18.61
2023-04-22T02:42:09.399Z,18.62
2023-04-22T02:42:31.067Z,18.61
2023-04-22T02:42:52.662Z,18.62
2023-04-22T02:43:14.320Z,18.60
2023-04-22T02:43:36.920Z,18.62
2023-04-22T02:43:58.558Z,18.61
2023-04-22T02:44:21.720Z,18.61
2023-04-22T02:44:43.408Z,18.52
2023-04-22T02:45:07.175Z,18.55
2023-04-22T02:45:28.833Z,18.61
2023-04-22T02:45:50.706Z,18.59
2023-04-22T02:46:13.118Z,18.60
2023-04-22T02:46:36.619Z,18.62
2023-04-22T02:46:58.500Z,18.62
2023-04-22T02:47:20.522Z,18.61
2023-04-22T02:47:43.710Z,18.57
2023-04-22T02:48:05.581Z,18.60
2023-04-22T02:48:27.196Z,18.60
2023-04-22T02:48:49.837Z,18.61
2023-04-22T02:49:11.459Z,18.62
2023-04-22T02:49:33.136Z,18.64
2023-04-22T02:49:54.812Z,18.64
2023-04-22T02:50:16.587Z,18.62
2023-04-22T02:50:39.326Z,18.60
2023-04-22T02:51:00.908Z,18.58
2023-04-22T02:51:22.878Z,18.61
2023-04-22T02:51:44.728Z,18.61
2023-04-22T02:52:07.284Z,18.62
2023-04-22T02:52:28.947Z,18.62
2023-04-22T02:52:51.302Z,18.63
2023-04-22T02:53:12.915Z,18.62
2023-04-22T02:53:36.201Z,18.62
2023-04-22T02:53:57.795Z,18.64
2023-04-22T02:54:19.430Z,18.52
2023-04-22T02:54:42.504Z,18.54
2023-04-22T02:55:05.050Z,18.57
2023-04-22T02:55:28.278Z,18.58
2023-04-22T02:55:49.924Z,18.59
2023-04-22T02:56:11.495Z,18.59
2023-04-22T02:56:33.082Z,18.63
2023-04-22T02:56:54.759Z,18.64
2023-04-22T02:57:17.395Z,18.66
2023-04-22T02:57:39.020Z,18.65
2023-04-22T02:58:00.666Z,18.66
2023-04-22T02:58:22.422Z,18.66
2023-04-22T02:58:45.109Z,18.68
2023-04-22T02:59:06.776Z,18.69
2023-04-22T02:59:28.438Z,18.68
2023-04-22T02:59:50.482Z,18.69
2023-04-22T03:00:14.870Z,18.71
2023-04-22T03:00:36.504Z,18.71
2023-04-22T03:00:59.145Z,18.69
2023-04-22T03:01:20.860Z,18.70
2023-04-22T03:01:42.610Z,18.72
2023-04-22T03:02:10.603Z,18.70
2023-04-22T03:02:45.908Z,18.72
2023-04-22T03:03:09.686Z,18.70
2023-04-22T03:03:31.965Z,18.69
2023-04-22T03:03:54.029Z,18.71
2023-04-22T03:04:21.988Z,18.68
2023-04-22T03:04:43.880Z,18.71
2023-04-22T03:05:06.510Z,18.70
2023-04-22T03:05:29.110Z,18.71
2023-04-22T03:05:50.778Z,18.64
2023-04-22T03:06:13.428Z,18.72
2023-04-22T03:06:35.050Z,18.72
2023-04-22T03:06:57.455Z,18.71
2023-04-22T03:07:19.175Z,18.69
2023-04-22T03:07:40.844Z,18.72
2023-04-22T03:08:03.510Z,18.73
2023-04-22T03:08:25.669Z,18.72
2023-04-22T03:08:47.307Z,18.67
2023-04-22T03:09:08.936Z,18.72
2023-04-22T03:09:31.553Z,18.72
2023-04-22T03:09:55.893Z,18.72
2023-04-22T03:10:18.277Z,18.71
2023-04-22T03:10:39.919Z,18.71
2023-04-22T03:11:01.986Z,18.71
2023-04-22T03:11:24.562Z,18.71
2023-04-22T03:11:46.221Z,18.69
2023-04-22T03:12:07.989Z,18.70
2023-04-22T03:12:31.081Z,18.72
2023-04-22T03:12:52.733Z,18.71
2023-04-22T03:13:16.617Z,18.71
2023-04-22T03:13:39.127Z,18.70
2023-04-22T03:14:00.928Z,18.69
2023-04-22T03:14:22.603Z,18.69
2023-04-22T03:14:45.482Z,18.64
2023-04-22T03:15:08.222Z,18.64
2023-04-22T03:15:30.599Z,18.49
2023-04-22T03:15:52.215Z,18.51
2023-04-22T03:16:15.371Z,18.54
2023-04-22T03:16:37.342Z,18.52
2023-04-22T03:17:00.452Z,18.54
2023-04-22T03:17:22.397Z,18.52
2023-04-22T03:17:46.080Z,18.53
2023-04-22T03:18:09.494Z,18.53
2023-04-22T03:18:31.366Z,18.53
2023-04-22T03:18:53.007Z,18.56
2023-04-22T03:19:16.641Z,18.56
2023-04-22T03:19:39.705Z,18.57
2023-04-22T03:20:01.684Z,18.54
2023-04-22T03:20:24.263Z,18.55
2023-04-22T03:20:45.950Z,18.60
2023-04-22T03:21:09.001Z,18.59
2023-04-22T03:21:32.257Z,18.61
2023-04-22T03:21:54.089Z,18.59
2023-04-22T03:22:15.952Z,18.61
2023-04-22T03:22:37.677Z,18.55
2023-04-22T03:23:01.776Z,18.57
2023-04-22T03:23:23.389Z,18.56
2023-04-22T03:23:45.389Z,18.56
2023-04-22T03:24:07.303Z,18.53
2023-04-22T03:24:31.064Z,18.54
2023-04-22T03:24:58.706Z,18.55
2023-04-22T03:25:22.736Z,18.53
2023-04-22T03:25:48.839Z,18.56
2023-04-22T03:26:10.479Z,18.51
2023-04-22T03:26:33.212Z,18.59
2023-04-22T03:26:55.235Z,18.59
2023-04-22T03:27:16.900Z,18.59
2023-04-22T03:27:39.462Z,18.59
2023-04-22T03:28:01.099Z,18.53
2023-04-22T03:28:22.909Z,18.61
2023-04-22T03:28:45.886Z,18.54
2023-04-22T03:29:08.496Z,18.56
2023-04-22T03:29:30.124Z,18.58
2023-04-22T03:29:51.712Z,18.59
2023-04-22T03:30:13.538Z,18.51
2023-04-22T03:30:36.155Z,18.57
2023-04-22T03:30:58.000Z,18.53
2023-04-22T03:31:19.691Z,18.53
2023-04-22T03:31:42.822Z,18.52
2023-04-22T03:32:04.546Z,18.51
2023-04-22T03:32:27.258Z,18.54
2023-04-22T03:33:11.421Z,18.57
2023-04-22T03:33:47.206Z,18.59
2023-04-22T03:34:17.792Z,18.59
2023-04-22T03:34:40.644Z,18.60
2023-04-22T03:35:05.578Z,18.61
2023-04-22T03:35:27.252Z,18.63
2023-04-22T03:35:51.312Z,18.63
2023-04-22T03:36:14.002Z,18.40
2023-04-22T03:36:35.664Z,18.64
2023-04-22T03:36:57.252Z,18.65
2023-04-22T03:37:20.052Z,18.61
2023-04-22T03:37:42.684Z,18.49
2023-04-22T03:38:07.782Z,18.52
2023-04-22T03:38:31.835Z,18.52
2023-04-22T03:38:54.489Z,18.56
2023-04-22T03:39:19.130Z,18.58
2023-04-22T03:39:41.561Z,18.58
2023-04-22T03:40:07.411Z,18.58
2023-04-22T03:40:30.237Z,18.60
2023-04-22T03:40:51.982Z,18.58
2023-04-22T03:41:23.490Z,18.62
2023-04-22T03:41:45.133Z,18.62
2023-04-22T03:42:08.132Z,18.64
2023-04-22T03:42:33.915Z,18.57
2023-04-22T03:42:55.961Z,18.64
2023-04-22T03:43:17.786Z,18.64
2023-04-22T03:43:48.345Z,18.58
2023-04-22T03:44:10.498Z,18.58
2023-04-22T03:44:33.222Z,18.60
2023-04-22T03:44:57.013Z,18.61
2023-04-22T03:45:22.044Z,18.61
2023-04-22T03:45:56.130Z,18.67
2023-04-22T03:46:20.981Z,18.67
2023-04-22T03:46:53.785Z,18.67
2023-04-22T03:47:20.190Z,18.70
2023-04-22T03:47:47.327Z,18.63
2023-04-22T03:48:20.243Z,18.65
2023-04-22T03:48:44.508Z,18.68
2023-04-22T03:49:15.836Z,18.69
2023-04-22T03:49:38.935Z,18.68
2023-04-22T03:50:01.146Z,18.67
2023-04-22T03:50:26.813Z,18.67
2023-04-22T03:50:50.653Z,18.67
2023-04-22T03:51:12.478Z,18.64
2023-04-22T03:51:35.721Z,18.61
2023-04-22T03:52:02.460Z,18.62
2023-04-22T03:52:25.020Z,18.57
2023-04-22T03:52:52.965Z,18.59
2023-04-22T03:53:16.324Z,18.59
2023-04-22T03:53:38.748Z,18.61
2023-04-22T03:54:02.606Z,18.62
2023-04-22T03:54:27.354Z,18.57
2023-04-22T03:54:50.413Z,18.60
2023-04-22T03:55:13.836Z,18.63
2023-04-22T03:55:36.602Z,18.63
2023-04-22T03:55:58.238Z,18.62
2023-04-22T03:56:20.417Z,18.63
2023-04-22T03:56:43.573Z,18.65
2023-04-22T03:57:06.424Z,18.65
2023-04-22T03:57:28.175Z,18.56
2023-04-22T03:57:50.414Z,18.61
2023-04-22T03:58:12.094Z,18.65
2023-04-22T03:58:33.770Z,18.64
2023-04-22T03:59:00.516Z,18.68
2023-04-22T03:59:22.165Z,18.66
2023-04-22T03:59:44.313Z,18.65
2023-04-22T04:00:08.382Z,18.66
2023-04-22T04:00:36.755Z,18.70
2023-04-22T04:01:04.376Z,18.67
2023-04-22T04:01:26.321Z,18.66
2023-04-22T04:01:52.821Z,18.69
2023-04-22T04:02:17.982Z,18.66
2023-04-22T04:02:40.537Z,18.64
2023-04-22T04:03:04.782Z,18.67
2023-04-22T04:03:30.247Z,18.69
2023-04-22T04:03:53.196Z,18.72
2023-04-22T04:04:16.336Z,18.71
2023-04-22T04:04:57.482Z,18.72
2023-04-22T04:05:19.956Z,18.52
2023-04-22T04:05:42.319Z,18.57
2023-04-22T04:06:05.025Z,18.58
2023-04-22T04:06:28.082Z,18.62
2023-04-22T04:06:49.653Z,18.66
2023-04-22T04:07:11.289Z,18.63
2023-04-22T04:07:32.976Z,18.65
2023-04-22T04:07:56.509Z,18.68
2023-04-22T04:08:19.260Z,18.69
2023-04-22T04:08:40.941Z,18.62
2023-04-22T04:09:03.755Z,18.63
2023-04-22T04:09:26.723Z,18.56
2023-04-22T04:09:48.563Z,18.63
2023-04-22T04:10:11.540Z,18.62
2023-04-22T04:10:34.655Z,18.66
2023-04-22T04:10:57.476Z,18.62
2023-04-22T04:11:20.833Z,18.75
2023-04-22T04:11:42.983Z,18.73
2023-04-22T04:12:05.813Z,18.77
2023-04-22T04:12:32.446Z,18.80
2023-04-22T04:12:55.904Z,18.80
2023-04-22T04:13:18.891Z,18.81
2023-04-22T04:13:57.985Z,18.74
2023-04-22T04:14:24.944Z,18.83
2023-04-22T04:14:47.282Z,18.84
2023-04-22T04:15:12.558Z,18.82
2023-04-22T04:15:36.433Z,18.84
2023-04-22T04:16:00.168Z,18.88
2023-04-22T04:16:23.778Z,18.90
2023-04-22T04:16:51.463Z,18.89
2023-04-22T04:17:21.667Z,18.90
2023-04-22T04:17:43.553Z,18.93
2023-04-22T04:18:05.345Z,18.94
2023-04-22T04:18:29.514Z,18.90
2023-04-22T04:18:51.820Z,18.94
2023-04-22T04:19:16.627Z,18.94
2023-04-22T04:19:38.614Z,18.78
2023-04-22T04:20:00.477Z,18.84
2023-04-22T04:20:22.338Z,18.85
2023-04-22T04:20:45.892Z,18.88
2023-04-22T04:21:07.827Z,18.89
2023-04-22T04:21:34.264Z,18.88
2023-04-22T04:21:56.972Z,18.89
2023-04-22T04:22:20.519Z,18.90
2023-04-22T04:22:50.301Z,18.89
2023-04-22T04:23:12.012Z,18.89
2023-04-22T04:23:33.858Z,18.90
2023-04-22T04:23:56.144Z,18.88
2023-04-22T04:24:22.839Z,18.84
2023-04-22T04:24:47.271Z,18.82
2023-04-22T04:25:14.267Z,18.86
2023-04-22T04:25:43.672Z,18.85
2023-04-22T04:26:08.136Z,18.90
2023-04-22T04:26:34.528Z,18.87
2023-04-22T04:27:04.874Z,18.88
2023-04-22T04:27:33.571Z,18.89
2023-04-22T04:27:55.405Z,18.88
2023-04-22T04:28:17.708Z,18.89
2023-04-22T04:28:39.619Z,18.86
2023-04-22T04:29:02.643Z,18.86
2023-04-22T04:29:24.908Z,18.89
2023-04-22T04:29:56.910Z,18.85
2023-04-22T04:30:33.443Z,18.85
2023-04-22T04:30:56.147Z,18.81
2023-04-22T04:31:18.026Z,18.87
2023-04-22T04:31:39.891Z,18.87
2023-04-22T04:32:03.210Z,18.90
2023-04-22T04:32:25.332Z,18.91
2023-04-22T04:32:48.130Z,18.90
2023-04-22T04:33:12.136Z,18.89
2023-04-22T04:33:36.925Z,18.79
2023-04-22T04:33:59.096Z,18.89
2023-04-22T04:34:20.950Z,18.86
2023-04-22T04:34:42.937Z,18.86
2023-04-22T04:35:07.219Z,18.85
2023-04-22T04:35:29.476Z,18.85
2023-04-22T04:35:52.525Z,18.79
2023-04-22T04:36:17.514Z,18.81
2023-04-22T04:36:40.316Z,18.78
2023-04-22T04:37:14.684Z,18.88
2023-04-22T04:37:50.667Z,18.88
2023-04-22T04:38:12.737Z,18.89
2023-04-22T04:38:35.420Z,18.82
2023-04-22T04:38:57.296Z,18.88
2023-04-22T04:39:20.385Z,18.74
2023-04-22T04:39:43.405Z,18.85
2023-04-22T04:40:10.172Z,18.85
2023-04-22T04:40:40.604Z,18.87
2023-04-22T04:41:08.586Z,18.88
2023-04-22T04:41:33.186Z,18.84
2023-04-22T04:41:55.204Z,18.86
2023-04-22T04:42:18.098Z,18.88
2023-04-22T04:42:47.484Z,18.87
2023-04-22T04:43:16.201Z,18.80
2023-04-22T04:43:46.268Z,18.74
2023-04-22T04:44:17.413Z,18.80
2023-04-22T04:44:39.983Z,18.82
2023-04-22T04:45:01.881Z,18.79
2023-04-22T04:45:24.826Z,18.71
2023-04-22T04:45:48.673Z,18.72
2023-04-22T04:46:13.793Z,18.73
2023-04-22T04:46:37.687Z,18.76
2023-04-22T04:46:59.826Z,18.78
2023-04-22T04:47:22.706Z,18.76
2023-04-22T04:47:45.133Z,18.75
2023-04-22T04:48:15.469Z,18.74
2023-04-22T04:48:42.335Z,18.74
2023-04-22T04:49:04.590Z,18.74
2023-04-22T04:49:32.517Z,18.76
2023-04-22T04:49:55.476Z,18.74
2023-04-22T04:50:17.215Z,18.66
2023-04-22T04:50:39.542Z,18.78
2023-04-22T04:51:01.185Z,18.80
2023-04-22T04:51:27.161Z,18.83
2023-04-22T04:51:52.363Z,18.83
2023-04-22T04:52:14.144Z,18.84
2023-04-22T04:52:36.387Z,18.81
2023-04-22T04:52:59.116Z,18.79
2023-04-22T04:53:27.650Z,18.80
2023-04-22T04:53:50.398Z,18.75
2023-04-22T04:54:12.307Z,18.81
2023-04-22T04:54:36.289Z,18.83
2023-04-22T04:54:57.905Z,18.83
2023-04-22T04:55:20.482Z,18.86
2023-04-22T04:55:43.705Z,18.85
2023-04-22T04:56:13.951Z,18.81
2023-04-22T04:56:36.190Z,18.81
2023-04-22T04:56:58.474Z,18.84
2023-04-22T04:57:20.355Z,18.84
2023-04-22T04:57:43.967Z,18.86
2023-04-22T04:58:07.507Z,18.88